createdAt,value
2018-12-02T00:01:21.377Z,44.15
2018-12-02T00:03:49.976Z,43.17
2018-12-02T00:06:18.465Z,40.57
2018-12-02T00:08:46.949Z,40.23
2018-12-02T00:11:15.708Z,43.30
2018-12-02T00:13:44.270Z,43.13
2018-12-02T00:16:12.784Z,41.92
2018-12-02T00:18:41.261Z,41.27
2018-12-02T00:21:10.425Z,42.03
2018-12-02T00:23:39.229Z,42.33
2018-12-02T00:26:08.667Z,43.70
2018-12-02T00:28:37.441Z,44.03
2018-12-02T00:31:06.549Z,41.80
2018-12-02T00:33:35.252Z,40.77
2018-12-02T00:36:04.888Z,41.43
2018-12-02T00:38:33.352Z,41.90
2018-12-02T00:41:02.104Z,43.10
2018-12-02T00:43:31.168Z,42.43
2018-12-02T00:45:59.770Z,43.37
2018-12-02T00:48:28.257Z,40.23
2018-12-02T00:50:56.748Z,43.57
2018-12-02T00:53:26.137Z,45.80
2018-12-02T00:56:01.701Z,41.63
2018-12-02T00:58:30.176Z,42.80
2018-12-02T01:00:58.656Z,42.17
2018-12-02T01:03:27.489Z,40.87
2018-12-02T01:05:56.016Z,44.73
2018-12-02T01:08:24.496Z,46.10
2018-12-02T01:10:53.272Z,45.20
2018-12-02T01:13:21.768Z,42.90
2018-12-02T01:15:50.228Z,40.60
2018-12-02T01:18:19.548Z,43.93
2018-12-02T01:20:48.116Z,43.90
2018-12-02T01:23:16.809Z,42.07
2018-12-02T01:25:45.332Z,42.13
2018-12-02T01:28:13.807Z,44.00
2018-12-02T01:30:42.288Z,44.40
2018-12-02T01:33:10.823Z,43.37
2018-12-02T01:35:39.307Z,45.20
2018-12-02T01:38:07.775Z,49.97
2018-12-02T01:40:38.456Z,47.63
2018-12-02T01:43:06.959Z,45.77
2018-12-02T01:45:35.455Z,43.37
2018-12-02T01:48:03.983Z,40.47
2018-12-02T01:50:33.133Z,43.37
2018-12-02T01:53:01.587Z,44.07
2018-12-02T01:55:30.260Z,43.37
2018-12-02T01:57:59.207Z,44.97
2018-12-02T02:00:28.311Z,41.77
2018-12-02T02:02:57.335Z,42.37
2018-12-02T02:05:26.551Z,44.33
2018-12-02T02:07:55.055Z,44.60
2018-12-02T02:10:25.872Z,43.03
2018-12-02T02:12:54.372Z,42.60
2018-12-02T02:15:22.944Z,43.50
2018-12-02T02:17:51.439Z,44.33
2018-12-02T02:20:22.131Z,43.50
2018-12-02T02:22:50.727Z,43.33
2018-12-02T02:25:20.423Z,44.20
2018-12-02T02:27:51.131Z,44.03
2018-12-02T02:30:22.567Z,43.67
2018-12-02T02:32:52.083Z,41.27
2018-12-02T02:35:21.500Z,42.65
2018-12-02T02:37:51.063Z,42.17
2018-12-02T02:40:30.171Z,43.17
2018-12-02T02:42:58.703Z,43.80
2018-12-02T02:45:27.207Z,42.67
2018-12-02T02:47:55.699Z,44.60
2018-12-02T02:50:25.055Z,44.77
2018-12-02T02:52:58.367Z,41.87
2018-12-02T02:55:27.463Z,42.93
2018-12-02T02:57:56.519Z,42.73
2018-12-02T03:00:26.019Z,40.10
2018-12-02T03:02:54.619Z,41.90
2018-12-02T03:05:23.451Z,39.77
2018-12-02T03:07:51.959Z,41.23
2018-12-02T03:10:21.303Z,41.50
2018-12-02T03:12:51.305Z,44.00
2018-12-02T03:15:20.524Z,43.27
2018-12-02T03:17:49.353Z,42.13
2018-12-02T03:20:19.749Z,42.47
2018-12-02T03:22:49.373Z,39.77
2018-12-02T03:25:18.850Z,43.67
2018-12-02T03:27:47.375Z,42.83
2018-12-02T03:30:18.707Z,44.07
2018-12-02T03:32:47.275Z,42.83
2018-12-02T03:35:17.774Z,42.87
2018-12-02T03:37:46.929Z,39.10
2018-12-02T03:40:16.417Z,39.75
2018-12-02T03:42:44.970Z,41.80
2018-12-02T03:45:14.819Z,39.23
2018-12-02T03:47:43.750Z,41.07
2018-12-02T03:50:17.387Z,43.77
2018-12-02T03:52:43.277Z,44.20
2018-12-02T03:55:11.786Z,42.70
2018-12-02T03:57:40.303Z,42.00
2018-12-02T04:00:15.683Z,41.90
2018-12-02T04:05:43.249Z,39.17
2018-12-02T04:08:12.138Z,42.20
2018-12-02T04:10:40.742Z,42.07
2018-12-02T04:13:09.567Z,43.43
2018-12-02T04:15:38.438Z,44.47
2018-12-02T04:18:06.966Z,43.93
2018-12-02T04:20:35.414Z,45.33
2018-12-02T04:23:04.996Z,43.47
2018-12-02T04:25:33.571Z,44.37
2018-12-02T04:28:02.051Z,43.67
2018-12-02T04:30:30.822Z,44.20
2018-12-02T04:32:59.311Z,43.10
2018-12-02T04:35:27.898Z,42.27
2018-12-02T04:37:56.398Z,43.17
2018-12-02T04:40:25.206Z,40.43
2018-12-02T04:42:53.931Z,40.93
2018-12-02T04:45:23.146Z,39.83
2018-12-02T04:47:51.752Z,39.53
2018-12-02T04:50:22.009Z,39.75
2018-12-02T04:52:50.544Z,37.53
2018-12-02T04:55:19.110Z,39.42
2018-12-02T04:57:47.607Z,39.63
2018-12-02T05:00:18.306Z,39.17
2018-12-02T05:02:47.836Z,41.03
2018-12-02T05:05:19.342Z,38.83
2018-12-02T05:07:48.587Z,37.17
2018-12-02T05:10:17.999Z,37.27
2018-12-02T05:12:46.594Z,37.30
2018-12-02T05:15:17.015Z,38.03
2018-12-02T05:17:45.795Z,36.97
2018-12-02T05:20:17.111Z,39.13
2018-12-02T05:22:46.000Z,37.93
2018-12-02T05:25:18.099Z,38.70
2018-12-02T05:27:44.070Z,38.43
2018-12-02T05:30:18.122Z,38.87
2018-12-02T05:32:47.706Z,40.90
2018-12-02T05:35:16.230Z,39.43
2018-12-02T05:37:44.721Z,39.20
2018-12-02T05:40:21.232Z,38.30
2018-12-02T05:42:50.214Z,39.10
2018-12-02T05:45:19.169Z,38.20
2018-12-02T05:47:47.754Z,40.67
2018-12-02T05:50:17.253Z,40.63
2018-12-02T05:52:46.865Z,40.63
2018-12-02T05:55:17.745Z,42.37
2018-12-02T05:57:46.202Z,39.60
2018-12-02T06:00:16.413Z,39.07
2018-12-02T06:02:45.253Z,41.10
2018-12-02T06:05:13.782Z,40.30
2018-12-02T06:07:42.385Z,40.37
2018-12-02T06:10:14.079Z,43.10
2018-12-02T06:12:42.900Z,40.73
2018-12-02T06:15:13.409Z,38.67
2018-12-02T06:17:42.017Z,43.17
2018-12-02T06:20:21.985Z,39.10
2018-12-02T06:22:51.386Z,42.80
2018-12-02T06:25:20.002Z,39.93
2018-12-02T06:27:48.542Z,41.57
2018-12-02T06:30:20.019Z,40.87
2018-12-02T06:32:49.757Z,40.23
2018-12-02T06:35:19.330Z,42.63
2018-12-02T06:37:48.100Z,41.93
2018-12-02T06:40:19.714Z,41.87
2018-12-02T06:42:48.273Z,43.17
2018-12-02T06:45:16.769Z,42.17
2018-12-02T06:47:45.293Z,40.60
2018-12-02T06:50:15.794Z,41.47
2018-12-02T06:52:44.313Z,41.10
2018-12-02T06:55:21.449Z,46.90
2018-12-02T06:57:58.118Z,50.07
2018-12-02T07:00:35.229Z,48.93
2018-12-02T07:03:24.129Z,46.87
2018-12-02T07:05:52.633Z,44.10
2018-12-02T07:08:21.097Z,43.80
2018-12-02T07:10:49.892Z,43.27
2018-12-02T07:13:18.853Z,40.83
2018-12-02T07:15:47.649Z,43.57
2018-12-02T07:18:19.321Z,41.57
2018-12-02T07:20:50.998Z,39.60
2018-12-02T07:23:23.726Z,41.67
2018-12-02T07:25:54.068Z,41.97
2018-12-02T07:28:23.073Z,43.23
2018-12-02T07:30:51.577Z,42.20
2018-12-02T07:33:20.277Z,41.63
2018-12-02T07:35:48.776Z,40.87
2018-12-02T07:38:20.957Z,41.17
2018-12-02T07:40:50.101Z,40.97
2018-12-02T07:43:18.697Z,40.20
2018-12-02T07:45:47.743Z,39.93
2018-12-02T07:48:16.337Z,38.55
2018-12-02T07:50:44.824Z,39.83
2018-12-02T07:53:13.532Z,40.83
2018-12-02T07:55:42.008Z,38.73
2018-12-02T07:58:17.265Z,40.00
2018-12-02T08:00:45.896Z,39.57
2018-12-02T08:03:14.388Z,41.23
2018-12-02T08:05:43.277Z,41.20
2018-12-02T08:08:11.763Z,40.73
2018-12-02T08:10:40.232Z,40.90
2018-12-02T08:13:08.912Z,41.40
2018-12-02T08:15:37.684Z,42.83
2018-12-02T08:18:06.204Z,41.20
2018-12-02T08:20:34.708Z,39.07
2018-12-02T08:23:03.756Z,39.90
2018-12-02T08:25:32.320Z,40.40
2018-12-02T08:28:01.145Z,43.17
2018-12-02T08:30:29.627Z,41.10
2018-12-02T08:32:58.423Z,43.83
2018-12-02T08:35:29.123Z,43.57
2018-12-02T08:38:01.617Z,40.83
2018-12-02T08:40:30.515Z,41.90
2018-12-02T08:42:59.467Z,39.83
2018-12-02T08:45:28.455Z,41.87
2018-12-02T08:47:57.063Z,38.67
2018-12-02T08:50:34.411Z,38.87
2018-12-02T08:53:03.559Z,36.87
2018-12-02T08:55:32.204Z,38.17
2018-12-02T08:58:00.819Z,39.57
2018-12-02T09:00:29.313Z,42.50
2018-12-02T09:03:00.591Z,40.07
2018-12-02T09:05:30.874Z,37.83
2018-12-02T09:07:59.913Z,32.40
2018-12-02T09:10:29.853Z,38.80
2018-12-02T09:13:02.490Z,37.87
2018-12-02T09:15:31.088Z,39.77
2018-12-02T09:18:01.163Z,38.93
2018-12-02T09:20:31.084Z,39.37
2018-12-02T09:22:59.567Z,39.03
2018-12-02T09:25:28.463Z,38.70
2018-12-02T09:27:56.985Z,36.70
2018-12-02T09:30:26.763Z,37.57
2018-12-02T09:32:55.506Z,36.40
2018-12-02T09:35:24.103Z,35.23
2018-12-02T09:37:52.621Z,36.37
2018-12-02T09:40:21.119Z,36.50
2018-12-02T09:42:52.549Z,34.93
2018-12-02T09:45:26.891Z,34.78
2018-12-02T09:47:56.603Z,37.23
2018-12-02T09:50:25.167Z,36.70
2018-12-02T09:52:53.677Z,35.00
2018-12-02T09:55:27.175Z,37.87
2018-12-02T09:57:56.399Z,36.10
2018-12-02T10:00:24.930Z,33.33
2018-12-02T10:02:53.503Z,36.47
2018-12-02T10:05:22.015Z,36.10
2018-12-02T10:07:50.488Z,36.13
2018-12-02T10:10:22.884Z,36.87
2018-12-02T10:13:21.195Z,38.37
2018-12-02T10:15:50.299Z,37.73
2018-12-02T10:18:18.974Z,36.17
2018-12-02T10:20:47.874Z,38.23
2018-12-02T10:23:16.614Z,36.80
2018-12-02T10:25:45.090Z,37.07
2018-12-02T10:28:13.570Z,38.67
2018-12-02T10:30:42.970Z,36.80
2018-12-02T10:33:11.723Z,35.67
2018-12-02T10:35:40.658Z,37.10
2018-12-02T10:38:09.241Z,35.43
2018-12-02T10:40:38.219Z,35.73
2018-12-02T10:43:07.182Z,36.90
2018-12-02T10:46:06.287Z,36.20
2018-12-02T10:48:35.482Z,34.23
2018-12-02T10:51:05.208Z,34.58
2018-12-02T10:53:33.750Z,35.75
2018-12-02T10:56:02.299Z,35.13
2018-12-02T10:58:32.290Z,35.93
2018-12-02T11:01:06.814Z,35.50
2018-12-02T11:03:35.298Z,34.67
2018-12-02T11:06:04.791Z,34.20
2018-12-02T11:08:33.333Z,34.53
2018-12-02T11:11:01.822Z,35.68
2018-12-02T11:13:30.606Z,35.53
2018-12-02T11:15:59.185Z,35.55
2018-12-02T11:18:27.750Z,35.67
2018-12-02T11:20:56.238Z,33.40
2018-12-02T11:23:25.082Z,35.00
2018-12-02T11:25:53.567Z,34.80
2018-12-02T11:28:22.718Z,35.23
2018-12-02T11:30:51.209Z,34.13
2018-12-02T11:33:19.700Z,34.33
2018-12-02T11:35:48.207Z,34.58
2018-12-02T11:38:18.691Z,33.57
2018-12-02T11:40:47.164Z,34.75
2018-12-02T11:43:15.824Z,34.53
2018-12-02T11:45:44.318Z,34.53
2018-12-02T11:48:12.872Z,33.70
2018-12-02T11:50:41.490Z,33.40
2018-12-02T11:53:10.355Z,33.80
2018-12-02T11:55:39.119Z,35.03
2018-12-02T11:58:07.648Z,33.63
2018-12-02T12:00:38.016Z,33.70
2018-12-02T12:03:06.515Z,32.80
2018-12-02T12:05:35.555Z,34.60
2018-12-02T12:08:06.296Z,32.93
2018-12-02T12:10:34.904Z,33.02
2018-12-02T12:13:03.489Z,31.37
2018-12-02T12:15:32.299Z,33.40
2018-12-02T12:18:01.076Z,31.73
2018-12-02T12:20:37.392Z,32.55
2018-12-02T12:23:06.999Z,31.93
2018-12-02T12:25:35.696Z,31.80
2018-12-02T12:28:04.767Z,31.45
2018-12-02T12:30:33.516Z,33.00
2018-12-02T12:33:02.004Z,33.05
2018-12-02T12:35:30.491Z,31.77
2018-12-02T12:37:59.364Z,30.85
2018-12-02T12:40:30.215Z,31.30
2018-12-02T12:43:04.243Z,31.27
2018-12-02T12:45:33.503Z,30.48
2018-12-02T12:48:02.119Z,29.37
2018-12-02T12:50:30.623Z,29.92
2018-12-02T12:52:59.379Z,29.18
2018-12-02T12:55:29.012Z,31.00
2018-12-02T12:57:56.695Z,29.98
2018-12-02T13:00:25.155Z,31.77
2018-12-02T13:02:53.987Z,29.67
2018-12-02T13:05:23.762Z,28.85
2018-12-02T13:07:52.955Z,31.53
2018-12-02T13:10:21.456Z,27.60
2018-12-02T13:12:50.311Z,30.00
2018-12-02T13:15:19.935Z,30.33
2018-12-02T13:17:57.635Z,29.37
2018-12-02T13:20:27.993Z,30.40
2018-12-02T13:22:56.966Z,31.73
2018-12-02T13:25:25.743Z,31.30
2018-12-02T13:27:54.291Z,31.15
2018-12-02T13:30:22.795Z,31.13
2018-12-02T13:32:53.777Z,32.03
2018-12-02T13:35:22.663Z,32.63
2018-12-02T13:37:51.268Z,31.27
2018-12-02T13:40:20.699Z,31.10
2018-12-02T13:42:51.565Z,33.03
2018-12-02T13:45:23.336Z,33.20
2018-12-02T13:47:51.862Z,32.75
2018-12-02T13:50:20.918Z,32.90
2018-12-02T13:52:50.632Z,33.60
2018-12-02T13:55:21.192Z,34.07
2018-12-02T13:57:49.834Z,35.70
2018-12-02T14:00:19.396Z,32.77
2018-12-02T14:02:55.921Z,33.53
2018-12-02T14:05:25.124Z,31.67
2018-12-02T14:07:53.608Z,30.37
2018-12-02T14:10:22.180Z,29.93
2018-12-02T14:13:01.012Z,31.37
2018-12-02T14:16:35.768Z,29.92
2018-12-02T14:19:08.140Z,29.87
2018-12-02T14:21:36.680Z,30.07
2018-12-02T14:24:08.044Z,32.10
2018-12-02T14:26:37.388Z,32.43
2018-12-02T14:29:09.923Z,32.67
2018-12-02T14:31:39.912Z,34.43
2018-12-02T14:34:08.393Z,33.03
2018-12-02T14:36:36.840Z,33.27
2018-12-02T14:39:10.424Z,34.63
2018-12-02T14:41:39.108Z,34.80
2018-12-02T14:44:08.337Z,32.90
2018-12-02T14:46:37.189Z,33.73
2018-12-02T14:49:06.284Z,33.87
2018-12-02T14:51:35.116Z,35.25
2018-12-02T14:54:04.244Z,32.33
2018-12-02T14:56:32.800Z,33.73
2018-12-02T14:59:01.557Z,34.63
2018-12-02T15:01:30.061Z,36.43
2018-12-02T15:03:58.696Z,33.50
2018-12-02T15:06:27.244Z,32.83
2018-12-02T15:08:55.866Z,33.17
2018-12-02T15:11:24.387Z,34.47
2018-12-02T15:13:52.847Z,34.43
2018-12-02T15:16:21.479Z,33.87
2018-12-02T15:18:50.199Z,34.23
2018-12-02T15:21:18.839Z,34.33
2018-12-02T15:23:47.902Z,34.93
2018-12-02T15:26:16.619Z,33.93
2018-12-02T15:28:45.465Z,34.07
2018-12-02T15:31:14.016Z,35.50
2018-12-02T15:33:42.957Z,34.53
2018-12-02T15:36:11.585Z,33.90
2018-12-02T15:38:40.250Z,33.20
2018-12-02T15:41:09.494Z,32.73
2018-12-02T15:43:38.573Z,35.17
2018-12-02T15:46:07.079Z,35.20
2018-12-02T15:48:35.954Z,35.23
2018-12-02T15:51:05.461Z,34.80
2018-12-02T15:53:33.986Z,32.10
2018-12-02T15:56:02.781Z,37.77
2018-12-02T15:58:31.793Z,35.90
2018-12-02T16:01:00.466Z,37.03
2018-12-02T16:03:28.945Z,35.43
2018-12-02T16:05:57.466Z,34.83
2018-12-02T16:08:26.061Z,36.37
2018-12-02T16:10:54.841Z,34.60
2018-12-02T16:13:24.073Z,35.03
2018-12-02T16:16:07.317Z,34.23
2018-12-02T16:18:36.041Z,37.20
2018-12-02T16:21:05.073Z,35.00
2018-12-02T16:23:33.589Z,35.50
2018-12-02T16:26:02.642Z,36.43
2018-12-02T16:28:31.381Z,36.93
2018-12-02T16:31:00.152Z,34.00
2018-12-02T16:33:29.194Z,34.53
2018-12-02T16:35:57.701Z,32.93
2018-12-02T16:38:26.269Z,32.83
2018-12-02T16:40:54.765Z,35.00
2018-12-02T16:43:23.269Z,36.73
2018-12-02T16:45:51.785Z,35.37
2018-12-02T16:48:20.303Z,33.80
2018-12-02T16:50:49.053Z,36.70
2018-12-02T16:53:23.062Z,34.03
2018-12-02T16:55:58.668Z,30.47
2018-12-02T16:58:40.349Z,33.27
2018-12-02T17:01:14.996Z,32.77
2018-12-02T17:03:43.934Z,32.90
2018-12-02T17:06:12.765Z,32.30
2018-12-02T17:08:41.286Z,31.93
2018-12-02T17:11:10.141Z,32.73
2018-12-02T17:13:38.677Z,30.87
2018-12-02T17:16:07.600Z,31.83
2018-12-02T17:18:36.137Z,32.93
2018-12-02T17:21:05.001Z,35.03
2018-12-02T17:23:33.539Z,33.83
2018-12-02T17:26:02.107Z,34.00
2018-12-02T17:28:30.696Z,32.17
2018-12-02T17:31:01.401Z,36.63
2018-12-02T17:33:30.215Z,35.13
2018-12-02T17:35:59.066Z,33.87
2018-12-02T17:38:27.831Z,31.33
2018-12-02T17:40:57.364Z,29.83
2018-12-02T17:43:26.157Z,29.60
2018-12-02T17:45:54.765Z,30.53
2018-12-02T17:48:23.262Z,29.25
2018-12-02T17:50:53.257Z,30.40
2018-12-02T17:53:22.158Z,31.10
2018-12-02T17:55:50.909Z,29.97
2018-12-02T17:58:19.890Z,31.30
2018-12-02T18:00:48.395Z,31.67
2018-12-02T18:03:20.558Z,30.87
2018-12-02T18:05:49.401Z,31.00
2018-12-02T18:08:18.109Z,30.30
2018-12-02T18:10:46.978Z,27.47
2018-12-02T18:13:15.475Z,28.80
2018-12-02T18:15:44.039Z,28.00
2018-12-02T18:18:12.637Z,25.93
2018-12-02T18:20:41.120Z,27.80
2018-12-02T18:23:09.610Z,25.47
2018-12-02T18:25:38.151Z,24.53
2018-12-02T18:28:06.725Z,28.93
2018-12-02T18:30:35.281Z,26.73
2018-12-02T18:33:04.810Z,25.87
2018-12-02T18:35:42.810Z,26.30
2018-12-02T18:38:14.350Z,24.93
2018-12-02T18:40:46.308Z,26.67
2018-12-02T18:43:14.786Z,26.60
2018-12-02T18:45:43.253Z,25.23
2018-12-02T18:48:11.769Z,24.97
2018-12-02T18:50:40.524Z,25.90
2018-12-02T18:53:09.006Z,24.97
2018-12-02T18:55:37.595Z,23.87
2018-12-02T18:58:06.212Z,26.50
2018-12-02T19:00:40.145Z,24.40
2018-12-02T19:03:08.896Z,24.20
2018-12-02T19:05:37.425Z,25.37
2018-12-02T19:08:06.673Z,23.43
2018-12-02T19:10:35.201Z,25.80
2018-12-02T19:13:05.821Z,26.17
2018-12-02T19:15:34.348Z,25.63
2018-12-02T19:18:02.872Z,27.20
2018-12-02T19:20:32.013Z,24.77
2018-12-02T19:23:03.508Z,25.67
2018-12-02T19:25:32.844Z,24.47
2018-12-02T19:28:01.837Z,24.40
2018-12-02T19:30:33.012Z,23.83
2018-12-02T19:32:58.980Z,25.40
2018-12-02T19:35:32.444Z,24.53
2018-12-02T19:38:19.100Z,24.40
2018-12-02T19:40:47.840Z,26.20
2018-12-02T19:43:16.460Z,27.07
2018-12-02T19:45:45.772Z,27.33
2018-12-02T19:48:14.612Z,24.67
2018-12-02T19:50:43.778Z,25.50
2018-12-02T19:53:12.679Z,25.43
2018-12-02T19:55:44.320Z,25.03
2018-12-02T19:58:13.800Z,24.00
2018-12-02T20:00:44.208Z,25.47
2018-12-02T20:03:14.152Z,25.57
2018-12-02T20:05:43.383Z,25.73
2018-12-02T20:08:13.197Z,23.77
2018-12-02T20:10:46.341Z,24.63
2018-12-02T20:13:19.578Z,26.00
2018-12-02T20:15:54.320Z,23.30
2018-12-02T20:18:23.006Z,23.93
2018-12-02T20:20:54.241Z,24.67
2018-12-02T20:23:28.818Z,23.35
2018-12-02T20:26:00.818Z,23.97
2018-12-02T20:28:32.211Z,24.77
2018-12-02T20:31:02.774Z,23.50
2018-12-02T20:33:31.255Z,25.00
2018-12-02T20:35:59.826Z,23.70
2018-12-02T20:38:28.730Z,24.43
2018-12-02T20:40:57.598Z,25.17
2018-12-02T20:43:26.310Z,24.53
2018-12-02T20:45:54.854Z,25.90
2018-12-02T20:48:23.326Z,23.90
2018-12-02T20:50:51.906Z,23.70
2018-12-02T20:53:20.478Z,24.97
2018-12-02T20:55:49.060Z,25.03
2018-12-02T20:58:17.630Z,24.23
2018-12-02T21:03:46.810Z,26.13
2018-12-02T21:06:16.817Z,26.30
2018-12-02T21:08:45.326Z,26.90
2018-12-02T21:11:14.093Z,27.70
2018-12-02T21:13:42.616Z,26.43
2018-12-02T21:16:11.114Z,26.37
2018-12-02T21:18:39.666Z,25.97
2018-12-02T21:21:08.201Z,27.52
2018-12-02T21:23:48.077Z,31.03
2018-12-02T21:26:16.715Z,30.23
2018-12-02T21:28:45.918Z,29.70
2018-12-02T21:31:14.478Z,27.13
2018-12-02T21:33:42.984Z,29.00
2018-12-02T21:36:11.435Z,29.97
2018-12-02T21:38:40.086Z,29.00
2018-12-02T21:41:08.526Z,27.53
2018-12-02T21:43:37.327Z,30.53
2018-12-02T21:46:06.012Z,27.97
2018-12-02T21:48:34.594Z,31.07
2018-12-02T21:51:03.071Z,31.00
2018-12-02T21:53:31.576Z,30.97
2018-12-02T21:56:00.731Z,29.17
2018-12-02T21:58:29.212Z,29.73
2018-12-02T22:01:17.278Z,30.77
2018-12-02T22:03:45.763Z,30.20
2018-12-02T22:06:14.525Z,30.60
2018-12-02T22:08:43.035Z,31.57
2018-12-02T22:11:11.531Z,30.07
2018-12-02T22:13:43.377Z,30.73
2018-12-02T22:16:08.592Z,30.97
2018-12-02T22:18:37.300Z,31.17
2018-12-02T22:21:06.000Z,32.33
2018-12-02T22:23:34.656Z,32.30
2018-12-02T22:26:03.283Z,32.50
2018-12-02T22:28:32.060Z,32.30
2018-12-02T22:31:00.667Z,29.07
2018-12-02T22:33:29.447Z,32.10
2018-12-02T22:35:58.111Z,31.67
2018-12-02T22:38:26.691Z,31.07
2018-12-02T22:40:55.179Z,31.20
2018-12-02T22:43:23.879Z,31.17
2018-12-02T22:45:52.445Z,32.60
2018-12-02T22:48:21.839Z,33.87
2018-12-02T22:50:50.342Z,31.77
2018-12-02T22:53:18.859Z,32.90
2018-12-02T22:55:47.947Z,32.77
2018-12-02T22:58:16.676Z,30.73
2018-12-02T23:00:50.951Z,30.83
2018-12-02T23:03:19.427Z,30.75
2018-12-02T23:05:48.300Z,31.70
2018-12-02T23:08:16.854Z,29.53
2018-12-02T23:10:46.622Z,31.37
2018-12-02T23:13:15.364Z,32.43
2018-12-02T23:15:43.975Z,32.30
2018-12-02T23:18:13.174Z,31.30
2018-12-02T23:20:41.995Z,33.07
2018-12-02T23:23:10.631Z,32.13
2018-12-02T23:25:39.182Z,30.13
2018-12-02T23:28:08.062Z,30.53
2018-12-02T23:30:36.783Z,32.03
2018-12-02T23:33:05.803Z,33.33
2018-12-02T23:35:34.567Z,32.90
2018-12-02T23:38:03.094Z,31.23
2018-12-02T23:40:31.651Z,29.57
2018-12-02T23:43:00.690Z,32.07
2018-12-02T23:45:30.228Z,31.43
2018-12-02T23:47:59.603Z,31.17
2018-12-02T23:50:28.315Z,28.53
2018-12-02T23:52:56.803Z,28.23
2018-12-02T23:55:26.636Z,27.37
2018-12-02T23:57:55.380Z,27.67
